METAR Data
IDs: Format: Raw Decoded Include TAF

Data at: 2026 UTC 18 Apr 2021

KRFD 181954Z 25010G18KT 220V280 10SM BKN100 BKN250 18/M03 A2988 RMK AO2 SLP119 T01781033